ILM weather

Public forecast

Using degrees Fahrenheit for public forecast. Weather courtesy of forecast.io.

Current aviation weather report (METAR) for Wilmington International Airport

Retrieved 2020/08/11 18:43 UTC (12 minutes ago):

KILM 111843Z 05006KT 10SM VCTS CLR 31/23 A2998 RMK AO2 T03060233

Aviation forecast (TAF) for Wilmington International Airport

Retrieved 2020/08/11 18:22 UTC (33 minutes ago):

TAF KILM 111720Z 1118/1218 17008KT P6SM VCSH SCT035 BKN090 FM112200 16007KT P6SM SCT110